Terminal Aerodrome Forecast
Issued by NWS

Home | Current Version | Previous Version | Text Only | Print | Product List | Glossary Off
Versions: 1 2 3 4 5 6 7 8 9 10 11 12 13 14 15 16 17 18

000
FTUS43 KTOP 190700 AAA
TAFFOE
TAF AMD
KFOE 190703Z 1907/2006 14005KT P6SM BKN120
      TEMPO 1907/1909 VRB20G35KT 3SM TSRA BKN035CB
     FM190900 14005KT P6SM VCTS BKN070CB
     FM191400 14007KT P6SM BKN130=

USA.gov is the U.S. government's official web portal to all federal, state and local government web resources and services.